Flight Track Log - Related Links

Times and Time Zones

All times are in EDT time to prevent confusion due to time zone crossing. See the N317FL flight status page for this flight to view local times or setup timezone preferences in your user account.

Time Position Orientation Groundspeed Altitude Reporting Facility
EDT Latitude Longitude Course Direction KTS MPH feet Rate Location/Type
Thu 06:48:42 AM 41.0120 -75.6250 155° Southeast 266 306 7,500  Level FlightAware ADS-B
Thu 06:49:07 AM 40.9870 -75.6100 156° South 266 306 7,500  Level FlightAware ADS-B
Thu 06:50:53 AM 40.8646 -75.5368 156° South 261 300 7,500  Level FlightAware ADS-B
Thu 06:51:33 AM 40.8201 -75.5103 156° South 261 300 7,500  Level FlightAware ADS-B
Thu 06:51:51 AM 40.8001 -75.4984 156° South 260 299 7,500  Level FlightAware ADS-B
Thu 06:52:23 AM 40.7655 -75.4778 156° South 260 299 7,500  Level FlightAware ADS-B
Thu 06:52:40 AM 40.7462 -75.4663 156° South 261 300 7,500 -308 Level FlightAware ADS-B
Thu 06:53:02 AM 40.7220 -75.4510 154° Southeast 267 307 7,300 -706 Descending FlightAware ADS-B
Thu 06:53:14 AM 40.7101 -75.4406 146° Southeast 267 307 7,100 -1,111 Descending FlightAware ADS-B
Thu 06:53:29 AM 40.6945 -75.4268 146° Southeast 258 297 6,800 -1,000 Descending FlightAware ADS-B
Thu 06:53:44 AM 40.6795 -75.4139 147° Southeast 252 290 6,600 -882 Descending FlightAware ADS-B
Thu 06:54:03 AM 40.6617 -75.3987 147° Southeast 248 285 6,300 -1,105 Descending FlightAware ADS-B
Thu 06:54:22 AM 40.6425 -75.3824 147° Southeast 254 292 5,900 -1,000 Descending FlightAware ADS-B
Thu 06:54:39 AM 40.6263 -75.3685 147° Southeast 257 296 5,700 -909 Descending FlightAware ADS-B
Thu 06:54:55 AM 40.6098 -75.3545 147° Southeast 260 299 5,400 -1,059 Descending FlightAware ADS-B
Thu 06:55:13 AM 40.5915 -75.3389 147° Southeast 260 299 5,100 -1,029 Descending FlightAware ADS-B
Thu 06:55:30 AM 40.5741 -75.3241 147° Southeast 260 299 4,800 -947 Descending FlightAware ADS-B
Thu 06:55:51 AM 40.5539 -75.3069 147° Southeast 255 293 4,500 -486 Descending FlightAware ADS-B
Thu 06:56:07 AM 40.5373 -75.2927 147° Southeast 257 296 4,500  Level FlightAware ADS-B
Thu 06:56:22 AM 40.5222 -75.2798 147° Southeast 254 292 4,500  Level FlightAware ADS-B
Thu 06:56:38 AM 40.5069 -75.2668 147° Southeast 251 289 4,500  Level FlightAware ADS-B
Thu 06:56:55 AM 40.4903 -75.2526 147° Southeast 248 285 4,500  Level FlightAware ADS-B
Thu 06:57:14 AM 40.4720 -75.2370 147° Southeast 247 284 4,500  Level FlightAware ADS-B
Thu 06:57:30 AM 40.4570 -75.2242 147° Southeast 246 283 4,500  Level FlightAware ADS-B
Thu 06:57:45 AM 40.4421 -75.2116 147° Southeast 245 282 4,500  Level FlightAware ADS-B
Thu 06:58:02 AM 40.4267 -75.1985 147° Southeast 245 282 4,500  Level FlightAware ADS-B
Thu 06:58:17 AM 40.4114 -75.1855 147° Southeast 244 281 4,500  Level FlightAware ADS-B
Thu 06:58:33 AM 40.3967 -75.1730 147° Southeast 244 281 4,500  Level FlightAware ADS-B
Thu 06:58:48 AM 40.3820 -75.1605 147° Southeast 244 281 4,500  Level FlightAware ADS-B
Thu 06:59:04 AM 40.3673 -75.1480 147° Southeast 244 281 4,500  Level FlightAware ADS-B
Thu 06:59:19 AM 40.3529 -75.1359 147° Southeast 244 281 4,500 -400 Level FlightAware ADS-B
Thu 06:59:34 AM 40.3385 -75.1237 147° Southeast 245 282 4,300 -923 Descending FlightAware ADS-B
Thu 06:59:45 AM 40.3282 -75.1139 144° Southeast 244 281 4,100 -857 Descending FlightAware ADS-B
Thu 06:59:48 AM 40.3257 -75.1108 137° Southeast 243 280 4,100 -857 Level FlightAware ADS-B
Thu 06:59:52 AM 40.3229 -75.1067 132° Southeast 242 278 4,000 -1,333 Descending FlightAware ADS-B
Thu 06:59:57 AM 40.3195 -75.1005 126° Southeast 241 277 3,900 -1,200 Descending FlightAware ADS-B
Thu 07:00:02 AM 40.3168 -75.0941 119° Southeast 240 276 3,800 -600 Descending FlightAware ADS-B
Thu 07:00:07 AM 40.3148 -75.0884 115° Southeast 239 275 3,800 -923 Level FlightAware ADS-B
Thu 07:00:15 AM 40.3117 -75.0779 111° Southeast 234 269 3,600 -1,091 Descending FlightAware ADS-B
Thu 07:00:18 AM 40.3101 -75.0728 112° Southeast 232 267 3,600 -1,200 Level FlightAware ADS-B
Thu 07:00:25 AM 40.3071 -75.0640 114° Southeast 230 265 3,400 -1,091 Descending FlightAware ADS-B
Thu 07:00:29 AM 40.3050 -75.0592 120° Southeast 230 265 3,400 -857 Level FlightAware ADS-B
Thu 07:00:32 AM 40.3028 -75.0558 130° Southeast 230 265 3,300 -857 Descending FlightAware ADS-B
Thu 07:00:36 AM 40.2997 -75.0523 139° Southeast 232 267 3,300 -750 Level FlightAware ADS-B
Thu 07:00:40 AM 40.2959 -75.0494 150° Southeast 233 268 3,200 -1,333 Descending FlightAware ADS-B
Thu 07:00:45 AM 40.2915 -75.0472 159° South 235 270 3,100 -750 Descending FlightAware ADS-B
Thu 07:00:48 AM 40.2881 -75.0460 165° South 236 272 3,100 -750 Level FlightAware ADS-B
Thu 07:00:53 AM 40.2825 -75.0444 168° South 235 270 3,000 -1,500 Descending FlightAware ADS-B
Thu 07:00:56 AM 40.2792 -75.0437 171° South 233 268 2,900 -750 Descending FlightAware ADS-B
Thu 07:01:01 AM 40.2746 -75.0432 175° South 230 265 2,900 -857 Level FlightAware ADS-B
Thu 07:01:10 AM 40.2645 -75.0416 173° South 221 254 2,700 -1,000 Descending FlightAware ADS-B
Thu 07:01:25 AM 40.2506 -75.0386 171° South 208 239 2,500 -444 Descending FlightAware ADS-B
Thu 07:01:37 AM 40.2392 -75.0361 170° South 192 221 2,500 -462 Level FlightAware ADS-B
Thu 07:01:51 AM 40.2270 -75.0338 172° South 189 217 2,300 -1,034 Descending FlightAware ADS-B
Thu 07:02:06 AM 40.2140 -75.0314 172° South 187 215 2,000 -1,000 Descending FlightAware ADS-B
Thu 07:02:15 AM 40.2064 -75.0302 173° South 185 213 1,900 -500 Descending FlightAware ADS-B
Thu 07:02:18 AM 40.2036 -75.0300 177° South 183 211 1,900 -857 Level FlightAware ADS-B
Thu 07:02:22 AM 40.2006 -75.0301 181° South 182 209 1,800 -857 Descending FlightAware ADS-B
Thu 07:02:25 AM 40.1977 -75.0309 192° South 181 208 1,800  Level FlightAware ADS-B
Thu 07:02:29 AM 40.1948 -75.0326 204° Southwest 181 208 1,800  Level FlightAware ADS-B
Thu 07:02:33 AM 40.1923 -75.0347 213° Southwest 182 209 1,800 -600 Level FlightAware ADS-B
Thu 07:02:39 AM 40.1883 -75.0393 221° Southwest 185 213 1,700 -1,125 Descending FlightAware ADS-B
Thu 07:02:49 AM 40.1824 -75.0472 226° Southwest 183 211 1,500 -522 Descending FlightAware ADS-B
Thu 07:03:02 AM 40.1747 -75.0560 221° Southwest 162 186 1,500  Level FlightAware ADS-B
Thu 07:03:09 AM 40.1704 -75.0607 220° Southwest 151 174 1,500 -500 Level FlightAware ADS-B
Thu 07:03:14 AM 40.1678 -75.0633 217° Southwest 148 170 1,400 -600 Descending FlightAware ADS-B
Thu 07:03:19 AM 40.1651 -75.0652 208° Southwest 146 168 1,400  Level FlightAware ADS-B
Thu 07:03:23 AM 40.1627 -75.0666 204° Southwest 143 165 1,400 -750 Level FlightAware ADS-B
Thu 07:03:27 AM 40.1600 -75.0675 194° South 141 162 1,300 -750 Descending FlightAware ADS-B
Thu 07:03:31 AM 40.1573 -75.0680 188° South 140 161 1,300 -462 Level FlightAware ADS-B
Thu 07:03:40 AM 40.1513 -75.0684 183° South 138 159 1,200 -462 Descending FlightAware ADS-B
Thu 07:03:44 AM 40.1487 -75.0682 177° South 137 158 1,200  Level FlightAware ADS-B
Thu 07:03:49 AM 40.1456 -75.0677 173° South 136 157 1,200 -545 Level FlightAware ADS-B
Thu 07:03:55 AM 40.1418 -75.0669 171° South 135 155 1,100 -429 Descending FlightAware ADS-B
Thu 07:04:03 AM 40.1374 -75.0657 168° South 136 157 1,100 -500 Level FlightAware ADS-B
Thu 07:04:07 AM 40.1344 -75.0646 164° South 138 159 1,000 -1,500 Descending FlightAware ADS-B
Thu 07:04:11 AM 40.1323 -75.0636 160° South 135 155 900 -750 Descending FlightAware ADS-B
Thu 07:04:15 AM 40.1301 -75.0622 154° Southeast 132 152 900  Level FlightAware ADS-B
Thu 07:04:19 AM 40.1280 -75.0607 151° Southeast 126 145 900 -400 Level FlightAware ADS-B
Thu 07:04:30 AM 40.1229 -75.0561 145° Southeast 116 133 800 -667 Descending FlightAware ADS-B
Thu 07:04:46 AM 40.1163 -75.0496 143° Southeast 110 127 600 -750 Descending FlightAware ADS-B
Thu 07:05:02 AM 40.1104 -75.0432 140° Southeast 107 123 400 -621 Descending FlightAware ADS-B
Thu 07:05:15 AM 40.1051 -75.0375 141° Southeast 108 124 300 -529 Descending FlightAware ADS-B
Thu 07:05:36 AM 40.0971 -75.0292 142° Southeast 107 123 100 -571 Descending FlightAware ADS-B

Login

Don't have an account? Register now (free) for customized features, flight alerts, and more!